Time;durP1;ratioP1;P1;durP2;ratioP2;P2;SDS_P1;SDS_P2;PMS_P1;PMS_P2;Temp;Humidity;BMP_temperature;BMP_pressure;BME280_temperature;BME280_humidity;BME280_pressure;Samples;Min_cycle;Max_cycle;Signal;HPM_P1;HPM_P2
2022/01/07 14:45:20;;;;;;;;;;;3.00;84.10;;;;;;5091984;27;19969;-68
2022/01/07 14:47:47;;;;;;;;;;;11.80;30.50;;;;;;5090680;28;20046;-68
2022/01/07 14:50:13;;;;;;;;;;;11.60;31.40;;;;;;5085646;28;19992;-67
2022/01/07 14:52:38;;;;;;;;;;;11.30;31.70;;;;;;5088808;28;20368;-66
2022/01/07 14:55:04;;;;;;;;;;;10.60;34.10;;;;;;5089860;28;19948;-67
2022/01/07 14:57:31;;;;;;;;;;;10.20;34.60;;;;;;5089861;28;19953;-66
2022/01/07 14:59:57;;;;;;;;;;;9.90;36.20;;;;;;5074667;28;19942;-66
2022/01/07 15:02:22;;;;;;;;;;;9.50;36.30;;;;;;5090146;28;19948;-66
2022/01/07 15:04:48;;;;;;;;;;;9.30;38.10;;;;;;5089843;28;19978;-66
2022/01/07 15:07:13;;;;;;;;;;;8.90;37.90;;;;;;5088524;28;20317;-66
2022/01/07 15:09:39;;;;;;;;;;;8.40;42.50;;;;;;5090116;28;20411;-66
2022/01/07 15:12:06;;;;;;;;;;;7.90;40.80;;;;;;5085991;28;20086;-66
2022/01/07 15:14:31;;;;;;;;;;;7.80;41.50;;;;;;5090071;28;19948;-66
2022/01/07 15:16:57;;;;;;;;;;;7.50;47.60;;;;;;5087096;28;19938;-66
2022/01/07 15:19:24;;;;;;;;;;;7.30;48.90;;;;;;5087981;28;19954;-66
2022/01/07 15:21:50;;;;;;;;;;;7.10;49.70;;;;;;5089455;28;19945;-66
2022/01/07 15:24:16;;;;;;;;;;;6.90;46.00;;;;;;5089854;28;19967;-66
2022/01/07 15:26:43;;;;;;;;;;;6.90;45.90;;;;;;5089101;28;19951;-67
2022/01/07 15:29:09;;;;;;;;;;;6.80;46.60;;;;;;5087385;28;20040;-66
2022/01/07 15:31:35;;;;;;;;;;;6.60;46.80;;;;;;5089341;28;20411;-67
2022/01/07 15:34:02;;;;;;;;;;;6.40;44.40;;;;;;5089465;28;20058;-67
2022/01/07 15:36:29;;;;;;;;;;;6.40;45.50;;;;;;5089670;28;19944;-67
2022/01/07 15:38:58;;;;;;;;;;;6.40;48.40;;;;;;5088206;28;19944;-66
2022/01/07 15:41:24;;;;;;;;;;;6.30;49.40;;;;;;5087769;28;19954;-67
2022/01/07 15:43:49;;;;;;;;;;;6.10;51.50;;;;;;5088709;28;19978;-68
2022/01/07 15:46:15;;;;;;;;;;;6.00;53.10;;;;;;5088493;28;19956;-68
2022/01/07 15:48:41;;;;;;;;;;;5.80;57.50;;;;;;5088205;28;20419;-68
2022/01/07 15:51:06;;;;;;;;;;;5.70;59.40;;;;;;5089142;28;20084;-68
2022/01/07 15:53:32;;;;;;;;;;;5.50;64.80;;;;;;5089642;28;20037;-68
2022/01/07 15:55:59;;;;;;;;;;;5.10;59.10;;;;;;5077166;28;19944;-68
2022/01/07 15:58:25;;;;;;;;;;;5.10;52.30;;;;;;5073496;28;19970;-68
2022/01/07 16:00:51;;;;;;;;;;;5.10;50.50;;;;;;5075710;28;19938;-69
2022/01/07 16:03:17;;;;;;;;;;;5.20;51.00;;;;;;5075630;28;19961;-68
2022/01/07 16:05:42;;;;;;;;;;;5.10;50.80;;;;;;5073632;28;19964;-69
2022/01/07 16:08:08;;;;;;;;;;;5.10;52.10;;;;;;5069981;28;20374;-68
2022/01/07 16:10:34;;;;;;;;;;;5.20;54.10;;;;;;5064216;28;19951;-69
2022/01/07 16:12:59;;;;;;;;;;;5.20;54.40;;;;;;5068105;28;19951;-69
2022/01/07 16:15:25;;;;;;;;;;;5.20;53.90;;;;;;5072088;28;19951;-68
2022/01/07 16:17:50;;;;;;;;;;;5.30;51.90;;;;;;5070029;28;19971;-68
2022/01/07 16:20:16;;;;;;;;;;;5.40;51.90;;;;;;5074459;28;19944;-68
2022/01/07 16:22:41;;;;;;;;;;;5.40;53.00;;;;;;5073900;28;19999;-68
2022/01/07 16:25:07;;;;;;;;;;;5.20;53.00;;;;;;5074984;28;20075;-68
2022/01/07 16:27:33;;;;;;;;;;;5.20;53.00;;;;;;5075670;28;19953;-68
2022/01/07 16:29:59;;;;;;;;;;;5.10;53.60;;;;;;5075261;28;19958;-68
2022/01/07 16:32:25;;;;;;;;;;;5.10;53.70;;;;;;5074797;28;19941;-68
2022/01/07 16:34:51;;;;;;;;;;;5.00;54.00;;;;;;5075189;28;20392;-68
2022/01/07 16:37:16;;;;;;;;;;;5.10;54.90;;;;;;5074835;28;20472;-68
2022/01/07 16:39:42;;;;;;;;;;;5.10;55.20;;;;;;5075067;28;19946;-69
2022/01/07 16:42:07;;;;;;;;;;;5.20;54.60;;;;;;5074359;28;19948;-69
2022/01/07 16:44:33;;;;;;;;;;;5.20;55.70;;;;;;5074750;28;19980;-69
2022/01/07 16:46:58;;;;;;;;;;;5.30;55.50;;;;;;5074925;28;19941;-67
2022/01/07 16:49:24;;;;;;;;;;;5.30;55.80;;;;;;5075124;28;19947;-66
2022/01/07 16:51:50;;;;;;;;;;;5.30;57.40;;;;;;5074200;28;19954;-68
2022/01/07 16:54:16;;;;;;;;;;;5.00;56.90;;;;;;5074404;28;20053;-69
2022/01/07 16:56:41;;;;;;;;;;;4.90;57.60;;;;;;5073387;28;19953;-68
2022/01/07 16:59:07;;;;;;;;;;;4.70;58.40;;;;;;5074410;28;19942;-68
2022/01/07 17:01:33;;;;;;;;;;;4.40;59.10;;;;;;5074083;28;20494;-68
2022/01/07 17:03:58;;;;;;;;;;;4.40;58.90;;;;;;5074530;28;19967;-69
2022/01/07 17:06:24;;;;;;;;;;;4.30;60.30;;;;;;5073998;28;19949;-68
2022/01/07 17:08:50;;;;;;;;;;;4.20;61.90;;;;;;5073664;28;20304;-69
2022/01/07 17:11:15;;;;;;;;;;;4.20;63.50;;;;;;5073871;28;19954;-69
2022/01/07 17:13:41;;;;;;;;;;;4.20;63.60;;;;;;5074383;28;19998;-69
2022/01/07 17:16:06;;;;;;;;;;;4.20;63.20;;;;;;5074327;28;19948;-69
2022/01/07 17:18:32;;;;;;;;;;;4.20;63.90;;;;;;5073876;28;19943;-69
2022/01/07 17:20:57;;;;;;;;;;;4.10;65.00;;;;;;5073916;28;19945;-69
2022/01/07 17:23:23;;;;;;;;;;;4.20;64.70;;;;;;5073793;28;19962;-69
2022/01/07 17:25:49;;;;;;;;;;;4.10;64.10;;;;;;5073539;28;20379;-68
2022/01/07 17:28:15;;;;;;;;;;;4.00;64.10;;;;;;5071981;28;19943;-68
2022/01/07 17:30:40;;;;;;;;;;;4.00;65.30;;;;;;5072771;28;20401;-68
2022/01/07 17:33:06;;;;;;;;;;;3.90;65.00;;;;;;5074009;28;19951;-68
2022/01/07 17:35:31;;;;;;;;;;;3.80;64.60;;;;;;5073654;28;19945;-68
2022/01/07 17:37:57;;;;;;;;;;;3.70;64.00;;;;;;5073923;28;19942;-68
2022/01/07 17:40:22;;;;;;;;;;;3.60;64.60;;;;;;5073503;28;19944;-68
2022/01/07 17:42:49;;;;;;;;;;;3.50;66.00;;;;;;5073322;28;19958;-68
2022/01/07 17:45:15;;;;;;;;;;;3.40;64.80;;;;;;5073274;28;20478;-68
2022/01/07 17:47:41;;;;;;;;;;;3.40;68.40;;;;;;5073720;28;20370;-68
2022/01/07 17:50:07;;;;;;;;;;;3.40;68.00;;;;;;5073295;28;19942;-69
2022/01/07 17:52:33;;;;;;;;;;;3.40;69.00;;;;;;5073055;28;19999;-68
2022/01/07 17:54:58;;;;;;;;;;;3.50;69.30;;;;;;5073060;28;19937;-69
2022/01/07 17:57:26;;;;;;;;;;;3.60;69.50;;;;;;5072770;28;20074;-69
2022/01/07 17:59:52;;;;;;;;;;;3.70;69.10;;;;;;5073007;28;19946;-69
2022/01/07 18:02:17;;;;;;;;;;;3.70;68.10;;;;;;5073137;28;19950;-69
2022/01/07 18:04:43;;;;;;;;;;;3.60;69.30;;;;;;5073289;28;19954;-68
2022/01/07 18:07:11;;;;;;;;;;;3.40;70.60;;;;;;5073087;28;19996;-68
2022/01/07 18:09:36;;;;;;;;;;;3.20;70.20;;;;;;5072002;28;19926;-68
2022/01/07 18:12:02;;;;;;;;;;;3.10;70.60;;;;;;5072952;28;20036;-68
2022/01/07 18:14:30;;;;;;;;;;;3.00;70.30;;;;;;5072268;28;19996;-68
2022/01/07 18:16:56;;;;;;;;;;;2.90;70.30;;;;;;5073209;28;19949;-68
2022/01/07 18:19:21;;;;;;;;;;;2.80;70.50;;;;;;5072752;28;19965;-68
2022/01/07 18:21:47;;;;;;;;;;;2.90;72.70;;;;;;5073225;28;19951;-68
2022/01/07 18:24:13;;;;;;;;;;;2.80;73.20;;;;;;5071570;28;19967;-69
2022/01/07 18:26:38;;;;;;;;;;;2.80;74.00;;;;;;5072565;28;20411;-69
2022/01/07 18:29:04;;;;;;;;;;;2.80;73.90;;;;;;5072883;28;20000;-69
2022/01/07 18:31:30;;;;;;;;;;;2.80;73.60;;;;;;5073133;28;20033;-69
2022/01/07 18:33:56;;;;;;;;;;;2.80;73.70;;;;;;5072816;28;19942;-68
2022/01/07 18:36:21;;;;;;;;;;;2.80;74.00;;;;;;5073120;28;19937;-69
2022/01/07 18:38:47;;;;;;;;;;;2.80;74.70;;;;;;5072610;28;19980;-68
2022/01/07 18:41:12;;;;;;;;;;;2.80;75.10;;;;;;5072642;28;19957;-69
2022/01/07 18:43:38;;;;;;;;;;;2.80;74.40;;;;;;5072780;28;19987;-68
2022/01/07 18:46:04;;;;;;;;;;;2.70;72.50;;;;;;5072639;28;20044;-68
2022/01/07 18:48:33;;;;;;;;;;;2.70;72.90;;;;;;5072987;28;19932;-68
2022/01/07 18:50:59;;;;;;;;;;;2.70;73.20;;;;;;5072943;28;19956;-68
2022/01/07 18:53:25;;;;;;;;;;;2.60;73.00;;;;;;5071678;28;19952;-68
2022/01/07 18:55:51;;;;;;;;;;;2.60;74.00;;;;;;5072579;28;19944;-68
2022/01/07 18:58:16;;;;;;;;;;;2.50;74.50;;;;;;5072897;28;19938;-68
2022/01/07 19:00:42;;;;;;;;;;;2.50;74.90;;;;;;5072855;28;20304;-69
2022/01/07 19:03:11;;;;;;;;;;;2.60;75.20;;;;;;5072497;28;20311;-68
2022/01/07 19:05:37;;;;;;;;;;;2.70;75.60;;;;;;5072837;28;19945;-69
2022/01/07 19:08:03;;;;;;;;;;;2.80;75.80;;;;;;5071476;28;20439;-69
2022/01/07 19:10:28;;;;;;;;;;;2.90;75.60;;;;;;5072425;28;20043;-69
2022/01/07 19:12:54;;;;;;;;;;;2.90;75.70;;;;;;5071447;28;19950;-69
2022/01/07 19:15:19;;;;;;;;;;;2.90;75.70;;;;;;5072726;28;19937;-69
2022/01/07 19:17:45;;;;;;;;;;;2.80;76.20;;;;;;5072653;28;20376;-68
2022/01/07 19:20:11;;;;;;;;;;;2.70;76.40;;;;;;5072394;28;19949;-68
2022/01/07 19:22:37;;;;;;;;;;;2.50;76.80;;;;;;5072604;28;20030;-68
2022/01/07 19:25:04;;;;;;;;;;;2.60;77.20;;;;;;5072267;28;19959;-69
2022/01/07 19:27:29;;;;;;;;;;;2.60;77.10;;;;;;5072417;28;19938;-68
2022/01/07 19:29:55;;;;;;;;;;;2.50;76.60;;;;;;5072423;28;19945;-68
2022/01/07 19:32:23;;;;;;;;;;;2.40;77.70;;;;;;5075073;28;19940;-68
2022/01/07 19:34:50;;;;;;;;;;;2.20;78.60;;;;;;5076318;28;19959;-68
2022/01/07 19:37:16;;;;;;;;;;;2.10;79.40;;;;;;5076264;28;19938;-68
2022/01/07 19:39:42;;;;;;;;;;;2.00;80.40;;;;;;5076181;28;19980;-68
2022/01/07 19:42:08;;;;;;;;;;;1.90;80.20;;;;;;5075354;28;20045;-68
2022/01/07 19:44:33;;;;;;;;;;;1.90;80.70;;;;;;5075504;28;20000;-69
2022/01/07 19:46:59;;;;;;;;;;;1.90;80.50;;;;;;5076339;28;19943;-69
2022/01/07 19:49:25;;;;;;;;;;;1.90;80.20;;;;;;5075981;28;19949;-68
2022/01/07 19:51:50;;;;;;;;;;;1.80;80.20;;;;;;5075381;28;19948;-69
2022/01/07 19:54:16;;;;;;;;;;;1.70;80.70;;;;;;5075976;28;19934;-69
2022/01/07 19:56:41;;;;;;;;;;;1.70;81.00;;;;;;5075579;28;19970;-69
2022/01/07 19:59:07;;;;;;;;;;;1.80;81.40;;;;;;5076154;28;19939;-69
2022/01/07 20:01:33;;;;;;;;;;;1.90;81.30;;;;;;5075640;28;19947;-69
2022/01/07 20:03:58;;;;;;;;;;;2.00;80.80;;;;;;5075345;28;19947;-69
2022/01/07 20:06:25;;;;;;;;;;;2.20;80.20;;;;;;5074483;28;20346;-69
2022/01/07 20:08:50;;;;;;;;;;;2.20;79.20;;;;;;5075914;28;20057;-68
2022/01/07 20:11:16;;;;;;;;;;;2.10;78.50;;;;;;5075639;28;19985;-66
2022/01/07 20:13:41;;;;;;;;;;;2.00;78.70;;;;;;5075618;28;20394;-66
2022/01/07 20:16:09;;;;;;;;;;;1.90;78.60;;;;;;5075864;28;19946;-66
2022/01/07 20:18:35;;;;;;;;;;;1.80;79.00;;;;;;5075529;28;19943;-66
2022/01/07 20:21:00;;;;;;;;;;;1.70;79.20;;;;;;5074825;28;19955;-66
2022/01/07 20:23:26;;;;;;;;;;;1.60;78.70;;;;;;5075168;28;19969;-68
2022/01/07 20:25:52;;;;;;;;;;;1.50;78.70;;;;;;5073765;28;19950;-69
2022/01/07 20:28:18;;;;;;;;;;;1.40;79.80;;;;;;5075258;28;19952;-68
2022/01/07 20:30:44;;;;;;;;;;;1.40;80.20;;;;;;5075006;28;19940;-69
2022/01/07 20:33:09;;;;;;;;;;;1.50;80.30;;;;;;5075246;28;20029;-69
2022/01/07 20:35:35;;;;;;;;;;;1.50;80.00;;;;;;5075216;28;19944;-69
2022/01/07 20:38:01;;;;;;;;;;;1.50;79.90;;;;;;5075154;28;20023;-69
2022/01/07 20:40:28;;;;;;;;;;;1.50;80.00;;;;;;5074821;28;20429;-69
2022/01/07 20:42:55;;;;;;;;;;;1.50;79.50;;;;;;5073395;28;20294;-69
2022/01/07 20:45:20;;;;;;;;;;;1.50;80.10;;;;;;5074910;28;19974;-69
2022/01/07 20:47:46;;;;;;;;;;;1.50;80.80;;;;;;5074992;28;19941;-69
2022/01/07 20:50:12;;;;;;;;;;;1.50;81.70;;;;;;5074911;28;19960;-69
2022/01/07 20:52:38;;;;;;;;;;;1.60;81.40;;;;;;5074486;28;19999;-68
2022/01/07 20:55:04;;;;;;;;;;;1.60;79.80;;;;;;5073542;28;19964;-68
2022/01/07 20:57:30;;;;;;;;;;;1.60;78.90;;;;;;5074402;28;20005;-68
2022/01/07 20:59:55;;;;;;;;;;;1.60;78.70;;;;;;5074653;28;19940;-68
2022/01/07 21:02:21;;;;;;;;;;;1.60;78.10;;;;;;5074181;28;19947;-68
2022/01/07 21:04:46;;;;;;;;;;;1.50;78.10;;;;;;5074525;28;19969;-69
2022/01/07 21:07:12;;;;;;;;;;;1.50;78.00;;;;;;5074557;28;19949;-69
2022/01/07 21:09:38;;;;;;;;;;;1.40;78.20;;;;;;5074469;28;20430;-68
2022/01/07 21:12:03;;;;;;;;;;;1.40;78.60;;;;;;5074110;28;19994;-68
2022/01/07 21:14:29;;;;;;;;;;;1.50;79.20;;;;;;5074099;28;19991;-68
2022/01/07 21:16:54;;;;;;;;;;;1.40;79.10;;;;;;5073107;28;19952;-69
2022/01/07 21:19:20;;;;;;;;;;;1.40;79.30;;;;;;5074366;28;19942;-68
2022/01/07 21:21:46;;;;;;;;;;;1.50;79.30;;;;;;5073962;28;19945;-69
2022/01/07 21:24:12;;;;;;;;;;;1.60;79.10;;;;;;5074155;28;19986;-69
2022/01/07 21:26:38;;;;;;;;;;;1.70;78.70;;;;;;5073775;28;19994;-69
2022/01/07 21:29:03;;;;;;;;;;;1.70;78.80;;;;;;5074044;28;19947;-69
2022/01/07 21:31:29;;;;;;;;;;;1.70;79.30;;;;;;5072443;28;20001;-69
2022/01/07 21:33:55;;;;;;;;;;;1.60;79.40;;;;;;5072619;28;19956;-68
2022/01/07 21:36:21;;;;;;;;;;;1.50;78.90;;;;;;5073237;28;19947;-68
2022/01/07 21:38:47;;;;;;;;;;;1.50;78.80;;;;;;5073747;28;19950;-68
2022/01/07 21:41:13;;;;;;;;;;;1.20;79.40;;;;;;5073341;28;19947;-68
2022/01/07 21:43:38;;;;;;;;;;;1.00;80.10;;;;;;5072556;28;19953;-68
2022/01/07 21:46:04;;;;;;;;;;;0.90;81.00;;;;;;5073738;28;19937;-68
2022/01/07 21:48:30;;;;;;;;;;;0.90;81.10;;;;;;5073658;28;19943;-68
2022/01/07 21:50:57;;;;;;;;;;;0.90;80.90;;;;;;5073362;28;19958;-68
2022/01/07 21:53:26;;;;;;;;;;;0.90;80.80;;;;;;5073144;28;19954;-68
2022/01/07 21:55:52;;;;;;;;;;;1.00;80.70;;;;;;5073349;28;19937;-68
2022/01/07 21:58:17;;;;;;;;;;;1.00;80.10;;;;;;5073616;28;19950;-68
2022/01/07 22:00:44;;;;;;;;;;;1.10;80.20;;;;;;5072702;28;20042;-69
2022/01/07 22:03:10;;;;;;;;;;;1.00;80.30;;;;;;5071836;28;20349;-69
2022/01/07 22:05:35;;;;;;;;;;;1.00;80.60;;;;;;5073058;28;19945;-68
2022/01/07 22:08:01;;;;;;;;;;;1.10;80.90;;;;;;5073438;28;19995;-69
2022/01/07 22:10:26;;;;;;;;;;;1.00;80.80;;;;;;5073062;28;20052;-68
2022/01/07 22:12:54;;;;;;;;;;;1.10;80.90;;;;;;5073038;28;20345;-69
2022/01/07 22:15:20;;;;;;;;;;;1.10;80.70;;;;;;5073311;28;19949;-68
2022/01/07 22:21:45;;;;;;;;;;;1.20;79.80;;;;;;5111063;27;19953;-68
2022/01/07 22:24:11;;;;;;;;;;;1.00;80.10;;;;;;5110935;28;19936;-68
2022/01/07 22:26:37;;;;;;;;;;;0.90;79.90;;;;;;5110141;28;19952;-68
2022/01/07 22:29:03;;;;;;;;;;;0.80;80.10;;;;;;5109890;28;20101;-68
2022/01/07 22:31:28;;;;;;;;;;;0.70;80.40;;;;;;5090467;28;20029;-68
2022/01/07 22:33:55;;;;;;;;;;;0.50;80.50;;;;;;5128303;27;19948;-66
2022/01/07 22:36:20;;;;;;;;;;;0.50;80.70;;;;;;5110798;28;19945;-66
2022/01/07 22:38:46;;;;;;;;;;;0.50;80.60;;;;;;5111284;28;20298;-66
2022/01/07 22:41:11;;;;;;;;;;;0.50;80.30;;;;;;5101839;28;19962;-66
2022/01/07 22:43:37;;;;;;;;;;;0.50;81.10;;;;;;5090309;28;19943;-66
2022/01/07 22:46:02;;;;;;;;;;;0.70;81.20;;;;;;5090279;28;20053;-66
2022/01/07 22:48:28;;;;;;;;;;;0.80;81.30;;;;;;5090208;28;19936;-66
2022/01/07 22:50:53;;;;;;;;;;;0.90;81.90;;;;;;5095609;28;19943;-66
2022/01/07 22:53:19;;;;;;;;;;;1.00;81.40;;;;;;5110436;28;20030;-66
2022/01/07 22:55:45;;;;;;;;;;;1.00;81.20;;;;;;5108558;28;19989;-66
2022/01/07 22:58:10;;;;;;;;;;;1.00;81.40;;;;;;5110358;28;19939;-66
2022/01/07 23:00:36;;;;;;;;;;;0.90;81.20;;;;;;5102273;28;21835;-66
2022/01/07 23:03:03;;;;;;;;;;;0.70;81.50;;;;;;5090660;28;19951;-66
2022/01/07 23:05:29;;;;;;;;;;;0.60;82.10;;;;;;5108326;28;19943;-66
2022/01/07 23:07:55;;;;;;;;;;;0.60;82.90;;;;;;5110133;28;19949;-66
2022/01/07 23:10:21;;;;;;;;;;;0.60;82.90;;;;;;5108261;28;19970;-66
2022/01/07 23:12:46;;;;;;;;;;;0.60;82.90;;;;;;5110048;28;19948;-66
2022/01/07 23:15:12;;;;;;;;;;;0.70;82.20;;;;;;5110297;28;20094;-66
2022/01/07 23:17:44;;;;;;;;;;;0.80;81.00;;;;;;5109944;28;19937;-66
2022/01/07 23:20:11;;;;;;;;;;;0.90;80.20;;;;;;5100674;28;20003;-66
2022/01/07 23:22:36;;;;;;;;;;;0.90;80.00;;;;;;5089511;28;20027;-66
2022/01/07 23:25:03;;;;;;;;;;;0.90;80.10;;;;;;5090555;28;20377;-66
2022/01/07 23:27:29;;;;;;;;;;;0.90;80.50;;;;;;5089289;28;19984;-66
2022/01/07 23:29:55;;;;;;;;;;;0.90;80.10;;;;;;5095420;28;19957;-66
2022/01/07 23:32:21;;;;;;;;;;;0.90;80.00;;;;;;5098945;28;20007;-66
2022/01/07 23:34:46;;;;;;;;;;;1.00;79.90;;;;;;5096139;28;19987;-66
2022/01/07 23:37:12;;;;;;;;;;;1.00;78.50;;;;;;5094780;28;19949;-66
2022/01/07 23:39:37;;;;;;;;;;;1.10;77.90;;;;;;5094213;28;20067;-66
2022/01/07 23:42:03;;;;;;;;;;;1.20;77.20;;;;;;5095641;28;19961;-66
2022/01/07 23:44:29;;;;;;;;;;;1.20;76.60;;;;;;5095918;28;19935;-66
2022/01/07 23:46:54;;;;;;;;;;;1.10;76.80;;;;;;5085962;28;19945;-67
2022/01/07 23:53:17;;;;;;;;;;;0.90;76.90;;;;;;5097454;27;19953;-66
2022/01/07 23:55:42;;;;;;;;;;;0.50;77.80;;;;;;5090306;28;20041;-66
2022/01/07 23:58:09;;;;;;;;;;;0.40;77.70;;;;;;5090634;28;19947;-66
